createdAt,value
2024-01-20T00:02:01.311Z,0.10
2024-01-20T00:08:03.337Z,0.20
2024-01-20T00:14:05.610Z,0.20
2024-01-20T00:20:09.014Z,0.10
2024-01-20T00:26:10.951Z,0.10
2024-01-20T00:32:12.910Z,0.00
2024-01-20T00:38:15.560Z,0.00
2024-01-20T00:44:17.496Z,0.00
2024-01-20T00:50:19.524Z,0.00
2024-01-20T00:56:21.487Z,0.00
2024-01-20T01:02:25.186Z,-0.10
2024-01-20T01:08:27.060Z,-0.10
2024-01-20T01:14:28.911Z,-0.10
2024-01-20T01:20:30.753Z,-0.10
2024-01-20T01:26:33.589Z,0.00
2024-01-20T01:32:35.777Z,-0.10
2024-01-20T01:38:37.677Z,0.00
2024-01-20T01:44:39.821Z,0.00
2024-01-20T01:50:42.059Z,0.00
2024-01-20T01:56:46.636Z,0.00
2024-01-20T02:02:49.361Z,0.00
2024-01-20T02:08:51.519Z,0.00
2024-01-20T02:14:54.069Z,0.00
2024-01-20T02:20:56.786Z,0.00
2024-01-20T02:26:59.627Z,0.00
2024-01-20T02:33:01.909Z,0.00
2024-01-20T02:39:03.910Z,0.10
2024-01-20T02:45:06.275Z,0.10
2024-01-20T02:51:08.202Z,0.10
2024-01-20T02:57:10.056Z,0.00
2024-01-20T03:03:12.102Z,0.00
2024-01-20T03:09:16.244Z,-0.10
2024-01-20T03:15:18.441Z,-0.20
2024-01-20T03:21:20.390Z,-0.20
2024-01-20T03:27:22.265Z,-0.30
2024-01-20T03:33:24.315Z,-0.40
2024-01-20T03:39:26.533Z,-0.50
2024-01-20T03:45:28.433Z,-0.50
2024-01-20T03:51:30.360Z,-0.50
2024-01-20T03:57:32.265Z,-0.60
2024-01-20T04:03:34.523Z,-0.60
2024-01-20T04:09:36.373Z,-0.70
2024-01-20T04:15:38.189Z,-0.70
2024-01-20T04:21:40.903Z,-0.70
2024-01-20T04:27:42.719Z,-0.90
2024-01-20T04:33:44.949Z,-1.00
2024-01-20T04:39:46.836Z,-1.10
2024-01-20T04:45:48.713Z,-1.10
2024-01-20T04:51:51.850Z,-1.20
2024-01-20T04:57:53.701Z,-1.20
2024-01-20T05:03:55.587Z,-1.20
2024-01-20T05:09:57.933Z,-1.20
2024-01-20T05:16:00.996Z,-1.20
2024-01-20T05:22:03.017Z,-1.20
2024-01-20T05:28:05.523Z,-1.20
2024-01-20T05:34:07.459Z,-1.20
2024-01-20T05:40:09.755Z,-1.20
2024-01-20T05:46:11.662Z,-1.20
2024-01-20T05:52:13.499Z,-1.10
2024-01-20T05:58:15.860Z,-1.20
2024-01-20T06:04:21.000Z,-1.10
2024-01-20T06:10:23.165Z,-1.10
2024-01-20T06:16:25.065Z,-1.10
2024-01-20T06:22:26.954Z,-1.10
2024-01-20T06:28:29.028Z,-1.10
2024-01-20T06:34:30.902Z,-1.10
2024-01-20T06:40:32.835Z,-1.00
2024-01-20T06:46:34.698Z,-1.00
2024-01-20T06:52:36.533Z,-1.00
2024-01-20T06:58:38.325Z,-1.00
2024-01-20T07:04:40.165Z,-1.10
2024-01-20T07:10:42.014Z,-1.10
2024-01-20T07:16:43.820Z,-1.10
2024-01-20T07:22:45.705Z,-1.10
2024-01-20T07:28:47.909Z,-1.10
2024-01-20T07:34:49.736Z,-1.10
2024-01-20T07:40:54.856Z,-1.10
2024-01-20T07:46:57.847Z,-1.10
2024-01-20T07:52:59.775Z,-1.10
2024-01-20T07:59:01.872Z,-1.10
2024-01-20T08:05:04.145Z,-1.10
2024-01-20T08:11:06.003Z,-1.10
2024-01-20T08:17:08.563Z,-1.00
2024-01-20T08:23:10.407Z,-0.90
2024-01-20T08:29:12.453Z,-0.90
2024-01-20T08:35:14.281Z,-0.80
2024-01-20T08:41:17.008Z,-0.80
2024-01-20T08:47:18.802Z,-0.70
2024-01-20T08:53:20.595Z,-0.50
2024-01-20T08:59:22.457Z,-0.60
2024-01-20T09:05:24.412Z,-0.50
2024-01-20T09:11:26.406Z,-0.50
2024-01-20T09:17:28.536Z,-0.60
2024-01-20T09:23:30.592Z,-0.60
2024-01-20T09:29:32.677Z,-0.70
2024-01-20T09:35:34.524Z,-0.70
2024-01-20T09:41:36.410Z,-0.60
2024-01-20T09:47:38.395Z,-0.50
2024-01-20T09:53:40.831Z,-0.40
2024-01-20T09:59:43.449Z,-0.40
2024-01-20T10:05:45.293Z,-0.30
2024-01-20T10:11:47.139Z,-0.20
2024-01-20T10:17:49.482Z,0.00
2024-01-20T10:23:51.505Z,-0.10
2024-01-20T10:29:53.571Z,0.10
2024-01-20T10:35:55.407Z,0.10
2024-01-20T10:41:58.612Z,0.40
2024-01-20T10:48:22.174Z,0.40
2024-01-20T10:54:24.601Z,0.40
2024-01-20T11:00:26.517Z,0.50
2024-01-20T11:06:28.705Z,0.50
2024-01-20T11:12:32.705Z,0.50
2024-01-20T11:18:41.883Z,0.50
2024-01-20T11:24:44.179Z,0.60
2024-01-20T11:30:46.480Z,0.90
2024-01-20T11:36:49.934Z,1.20
2024-01-20T11:42:51.901Z,1.20
2024-01-20T11:48:55.959Z,1.30
2024-01-20T11:54:57.936Z,1.30
2024-01-20T12:01:00.985Z,1.40
2024-01-20T12:07:03.077Z,1.40
2024-01-20T12:13:04.900Z,1.50
2024-01-20T12:19:07.376Z,1.50
2024-01-20T12:25:09.479Z,1.50
2024-01-20T12:31:14.283Z,1.40
2024-01-20T12:37:18.360Z,1.40
2024-01-20T12:43:20.258Z,1.60
2024-01-20T12:49:22.342Z,1.60
2024-01-20T12:55:24.240Z,1.80
2024-01-20T13:01:26.561Z,2.00
2024-01-20T13:07:28.617Z,2.20
2024-01-20T13:13:30.538Z,2.10
2024-01-20T13:19:32.532Z,2.00
2024-01-20T13:25:34.422Z,1.90
2024-01-20T13:31:36.373Z,1.90
2024-01-20T13:37:39.595Z,1.80
2024-01-20T13:43:41.554Z,1.80
2024-01-20T13:49:46.002Z,1.80
2024-01-20T13:55:47.965Z,1.90
2024-01-20T14:01:52.884Z,1.90
2024-01-20T14:07:54.732Z,1.90
2024-01-20T14:13:56.634Z,1.80
2024-01-20T14:19:58.538Z,1.90
2024-01-20T14:26:01.718Z,1.90
2024-01-20T14:32:04.296Z,1.80
2024-01-20T14:38:06.166Z,1.60
2024-01-20T14:44:07.969Z,1.50
2024-01-20T14:50:10.249Z,1.60
2024-01-20T14:56:12.913Z,1.70
2024-01-20T15:02:15.173Z,1.70
2024-01-20T15:08:17.156Z,1.80
2024-01-20T15:14:19.145Z,1.70
2024-01-20T15:20:22.396Z,1.60
2024-01-20T15:26:25.306Z,1.50
2024-01-20T15:32:27.509Z,1.50
2024-01-20T15:38:29.624Z,1.50
2024-01-20T15:44:31.606Z,1.40
2024-01-20T15:50:33.861Z,1.40
2024-01-20T15:56:41.822Z,1.30
2024-01-20T16:02:43.990Z,1.30
2024-01-20T16:08:45.972Z,1.30
2024-01-20T16:14:47.770Z,1.20
2024-01-20T16:20:49.648Z,1.20
2024-01-20T16:26:51.512Z,1.20
2024-01-20T16:32:53.844Z,1.10
2024-01-20T16:38:55.691Z,1.00
2024-01-20T16:44:57.538Z,0.90
2024-01-20T16:51:10.328Z,0.90
2024-01-20T16:57:17.146Z,0.70
2024-01-20T17:03:20.674Z,0.70
2024-01-20T17:09:22.528Z,0.60
2024-01-20T17:15:24.425Z,0.60
2024-01-20T17:21:26.499Z,0.60
2024-01-20T17:27:28.413Z,0.70
2024-01-20T17:33:30.394Z,0.70
2024-01-20T17:39:38.414Z,0.70
2024-01-20T17:45:40.284Z,0.60
2024-01-20T17:51:42.941Z,0.60
2024-01-20T17:57:46.818Z,0.60
2024-01-20T18:03:49.077Z,0.50
2024-01-20T18:09:51.036Z,0.50
2024-01-20T18:15:53.056Z,0.50
2024-01-20T18:21:55.026Z,0.50
2024-01-20T18:27:57.314Z,0.50
2024-01-20T18:33:59.644Z,0.50
2024-01-20T18:40:01.603Z,0.40
2024-01-20T18:46:03.511Z,0.50
2024-01-20T18:52:05.706Z,0.50
2024-01-20T18:58:07.682Z,0.50
2024-01-20T19:04:09.745Z,0.70
2024-01-20T19:10:11.994Z,0.70
2024-01-20T19:16:13.828Z,0.70
2024-01-20T19:22:15.669Z,0.70
2024-01-20T19:28:17.523Z,0.80
2024-01-20T19:34:19.856Z,0.80
2024-01-20T19:40:21.780Z,0.70
2024-01-20T19:46:23.563Z,0.70
2024-01-20T19:52:25.397Z,0.70
2024-01-20T19:58:27.166Z,0.70
2024-01-20T20:04:29.205Z,0.50
2024-01-20T20:10:31.191Z,0.10
2024-01-20T20:16:33.078Z,0.00
2024-01-20T20:22:35.190Z,-0.10
2024-01-20T20:28:37.009Z,-0.20
2024-01-20T20:34:38.918Z,-0.20
2024-01-20T20:40:40.821Z,-0.30
2024-01-20T20:46:42.657Z,-0.20
2024-01-20T20:52:46.720Z,-0.20
2024-01-20T20:58:48.705Z,-0.30
2024-01-20T21:04:50.654Z,-0.20
2024-01-20T21:10:52.723Z,-0.30
2024-01-20T21:16:54.731Z,-0.10
2024-01-20T21:22:56.615Z,-0.10
2024-01-20T21:28:58.424Z,0.00
2024-01-20T21:35:00.421Z,-0.10
2024-01-20T21:41:02.303Z,-0.10
2024-01-20T21:47:04.835Z,-0.10
2024-01-20T21:53:06.779Z,0.00
2024-01-20T21:59:08.617Z,0.00
2024-01-20T22:05:10.639Z,0.00
2024-01-20T22:11:12.470Z,-0.10
2024-01-20T22:17:14.322Z,0.00
2024-01-20T22:23:16.299Z,0.20
2024-01-20T22:29:27.853Z,0.10
2024-01-20T22:35:32.961Z,0.10
2024-01-20T22:41:34.808Z,0.10
2024-01-20T22:47:37.510Z,0.10
2024-01-20T22:53:40.575Z,0.00
2024-01-20T22:59:42.898Z,-0.10
2024-01-20T23:05:45.728Z,-0.20
2024-01-20T23:11:47.632Z,-0.30
2024-01-20T23:17:49.397Z,-0.30
2024-01-20T23:23:51.197Z,-0.20
2024-01-20T23:29:53.003Z,-0.20
2024-01-20T23:35:54.828Z,-0.20
2024-01-20T23:41:56.676Z,-0.20
2024-01-20T23:47:59.084Z,-0.40
2024-01-20T23:54:00.984Z,-0.40
